Waverly, WV

7:53 PM EST on December 25, 2014 (GMT -0500)
Wood County Wilson | Change Station
CLOSE
Current Station
Airport
Location: Parkersburg,
Elevation: 860 ft
Nearby Weather Stations

Elev 860 ft 39.35 °N, 81.44 °W | Updated 46 minutes ago

Overcast
Overcast
41 °F
Feels Like 39 °F
N
4
Wind Variable Wind from West

Today
High -- | Low -- °F
--% Chance of Precip.
Yesterday
High -- | Low -- °F
Precip. -- in
7:43 AM 5:08 PM
Waxing Crescent, 20% visible
Pressure 30.24 in
Visibility 10.0 miles
Clouds Overcast 2900 ft
Windchill 39 °F
Dew Point 31 °F
Humidity 67%
Rainfall 0.04 in
Snow Depth Not available.
UV 0 out of 12
Pollen .10 out of 12
Air Quality Not available.
Flu Activity Not available.
SPECI KPKB 260007Z 26003KT 10SM OVC029 05/M01 A3024 RMK AO2 T00501006

More Conditions Fewer Conditions

Pressure 30.24 in
Visibility 10.0 miles
Clouds Overcast 2900 ft
Windchill 39 °F
Dew Point 31 °F
Humidity 67%
Rainfall 0.04 in
Snow Depth Not available.
UV 0 out of 12
Pollen .10 out of 12
Air Quality Not available.
Flu Activity Not available.
SPECI KPKB 260007Z 26003KT 10SM OVC029 05/M01 A3024 RMK AO2 T00501006

More Conditions Fewer Conditions

10-Day Weather Forecast

Almanac

Astronomy

Dec. 25, 2014 Rise Set
Actual Time
Civil Twilight
Nautical Twilight
Astronomical Twilight
Moon
Length of Visible Light
Length of Day
Tomorrow will be .
, % of the Moon is Illuminated

Today's Extremes

State Highs State Lows

Community

WunderPhotos

Upload Photos

1,780,483 photos uploaded!

WunderBlogs® & News

Nearby

Air Quality

  Air Quality AQ Index Pollutant
Not available.

Snow Depth

Station Depth Elevation

Earthquake Activity

City Distance Mag. Time & Date
Minimum magnitude displayed is 2.5.

Coastal Water Temperatures

Place Temperature

Nearby Weather Stations